Time;durP1;ratioP1;P1;durP2;ratioP2;P2;SDS_P1;SDS_P2;PMS_P1;PMS_P2;Temp;Humidity;BMP_temperature;BMP_pressure;BME280_temperature;BME280_humidity;BME280_pressure;Samples;Min_cycle;Max_cycle;Signal;HPM_P1;HPM_P2
2021/05/20 06:10:48;;;;;;;9.95;4.40;;;15.10;99.90;;;;;;3625197;39;867842;-90
2021/05/20 06:13:17;;;;;;;7.68;4.40;;;15.20;99.90;;;;;;3635658;39;20338;-91
2021/05/20 06:15:46;;;;;;;5.47;4.00;;;15.50;99.90;;;;;;3643581;39;20051;-90
2021/05/20 06:18:16;;;;;;;5.18;4.03;;;15.70;99.90;;;;;;3637630;39;20444;-89
2021/05/20 06:20:52;;;;;;;;;;;;;;;;;;;;;
2021/05/20 06:23:18;;;;;;;5.80;3.95;;;15.80;99.90;;;;;;3648713;39;20043;-89
2021/05/20 06:25:45;;;;;;;7.07;4.22;;;15.50;99.90;;;;;;3628594;39;20050;-89
2021/05/20 06:28:11;;;;;;;5.30;2.60;;;15.60;99.90;;;;;;3650036;39;20046;-91
2021/05/20 06:30:37;;;;;;;4.68;3.63;;;16.20;99.90;;;;;;3624120;39;20065;-89
2021/05/20 06:33:03;;;;;;;7.68;3.88;;;16.00;99.90;;;;;;3640391;39;20232;-88
2021/05/20 06:35:29;;;;;;;4.07;3.33;;;16.30;99.90;;;;;;3638680;39;20058;-88
2021/05/20 06:37:55;;;;;;;6.25;2.78;;;16.10;99.90;;;;;;3619933;39;20066;-88
2021/05/20 06:40:20;;;;;;;7.82;2.85;;;16.20;99.90;;;;;;3628694;39;20065;-88
2021/05/20 06:42:46;;;;;;;2.85;2.65;;;16.10;99.90;;;;;;3627576;39;20331;-90
2021/05/20 06:45:13;;;;;;;3.63;2.50;;;16.10;99.90;;;;;;3625248;39;20125;-88
2021/05/20 06:47:39;;;;;;;6.55;2.50;;;16.30;99.90;;;;;;3625503;39;20051;-89
2021/05/20 06:50:05;;;;;;;5.15;2.85;;;16.40;99.90;;;;;;3620628;39;20047;-89
2021/05/20 06:52:32;;;;;;;4.25;2.65;;;16.50;99.90;;;;;;3629121;39;20119;-89
2021/05/20 06:54:57;;;;;;;4.97;2.80;;;16.30;99.90;;;;;;3627466;39;20131;-90
2021/05/20 07:00:08;;;;;;;4.05;2.58;;;16.40;99.90;;;;;;3626109;39;20051;-90
2021/05/20 07:02:34;;;;;;;4.57;2.90;;;16.60;99.90;;;;;;3629010;39;20047;-89
2021/05/20 07:05:00;;;;;;;3.05;2.75;;;16.50;99.90;;;;;;3614414;39;20428;-87
2021/05/20 07:07:26;;;;;;;3.88;2.60;;;16.70;99.90;;;;;;3625099;39;20511;-88
2021/05/20 07:09:53;;;;;;;3.88;2.38;;;16.40;99.90;;;;;;3626279;39;20047;-89
2021/05/20 07:12:19;;;;;;;4.35;2.20;;;16.30;99.90;;;;;;3620112;39;20316;-88
2021/05/20 07:14:45;;;;;;;5.13;3.30;;;16.90;99.90;;;;;;3625154;39;20035;-87
2021/05/20 07:17:11;;;;;;;5.57;3.60;;;16.00;99.90;;;;;;3611003;39;20327;-88
2021/05/20 07:19:38;;;;;;;3.55;2.85;;;15.70;99.90;;;;;;3607021;39;20043;-88
2021/05/20 07:22:04;;;;;;;5.63;3.78;;;16.20;99.90;;;;;;3611558;39;20043;-89
2021/05/20 07:24:31;;;;;;;6.95;3.28;;;16.40;99.90;;;;;;3620716;39;20054;-87
2021/05/20 07:26:57;;;;;;;4.80;3.25;;;16.60;99.90;;;;;;3617480;39;20135;-91
2021/05/20 07:29:23;;;;;;;3.13;2.80;;;16.20;99.90;;;;;;3612478;39;20039;-88
2021/05/20 07:31:49;;;;;;;4.70;2.63;;;16.50;99.90;;;;;;3621168;39;20054;-88
2021/05/20 07:34:15;;;;;;;4.45;3.25;;;16.30;99.90;;;;;;3620422;39;20050;-90
2021/05/20 07:36:41;;;;;;;3.53;3.10;;;16.00;99.90;;;;;;3614813;39;20047;-90
2021/05/20 07:39:07;;;;;;;9.18;2.80;;;16.00;99.90;;;;;;3616396;39;20062;-88
2021/05/20 07:41:34;;;;;;;3.20;2.78;;;16.00;99.90;;;;;;3615642;39;20476;-87
2021/05/20 07:44:00;;;;;;;3.45;2.90;;;16.80;99.90;;;;;;3617387;39;20150;-88
2021/05/20 07:46:26;;;;;;;5.68;2.50;;;16.40;99.90;;;;;;3616981;39;20051;-89
2021/05/20 07:48:52;;;;;;;3.17;2.75;;;17.10;99.90;;;;;;3610212;39;20045;-89
2021/05/20 07:51:18;;;;;;;3.58;2.75;;;17.10;99.90;;;;;;3617866;39;20043;-89
2021/05/20 07:53:44;;;;;;;4.03;2.10;;;17.20;99.90;;;;;;3618343;39;20047;-83
2021/05/20 07:56:10;;;;;;;4.07;2.38;;;17.20;99.90;;;;;;3612922;39;20133;-83
2021/05/20 07:58:36;;;;;;;2.60;1.98;;;17.20;99.90;;;;;;3609448;39;20351;-84
2021/05/20 08:01:02;;;;;;;3.78;2.60;;;17.40;99.90;;;;;;3610936;39;20303;-82
2021/05/20 08:03:34;;;;;;;6.22;1.98;;;17.10;99.90;;;;;;3613393;39;20156;-86
2021/05/20 08:06:11;;;;;;;5.05;1.88;;;17.50;99.90;;;;;;3605625;39;20087;-85
2021/05/20 08:11:21;;;;;;;2.22;1.60;;;18.00;99.90;;;;;;3617496;39;20054;-85
2021/05/20 08:13:47;;;;;;;5.53;1.98;;;17.60;99.90;;;;;;3611824;39;20320;-84
2021/05/20 08:16:14;;;;;;;2.72;2.00;;;17.70;99.90;;;;;;3617026;39;20074;-83
2021/05/20 08:18:40;;;;;;;3.83;2.47;;;17.50;99.90;;;;;;3606088;39;20051;-84
2021/05/20 08:21:06;;;;;;;6.18;3.33;;;16.60;99.90;;;;;;3616087;39;20484;-86
2021/05/20 08:23:33;;;;;;;3.88;2.28;;;16.00;99.90;;;;;;3615577;39;20094;-82
2021/05/20 08:26:00;;;;;;;4.43;1.92;;;16.00;99.90;;;;;;3616594;39;20055;-84
2021/05/20 08:28:26;;;;;;;3.08;2.42;;;16.10;99.90;;;;;;3610292;39;20254;-84
2021/05/20 08:30:53;;;;;;;3.42;2.30;;;16.20;99.90;;;;;;3615918;39;20061;-84
2021/05/20 08:33:19;;;;;;;4.00;2.10;;;16.50;99.90;;;;;;3614325;39;20720;-84
2021/05/20 08:35:48;;;;;;;6.75;2.53;;;17.30;99.90;;;;;;3610428;39;20051;-83
2021/05/20 08:38:14;;;;;;;5.85;2.47;;;17.40;99.90;;;;;;3613158;39;20051;-89
2021/05/20 08:40:42;;;;;;;2.75;2.35;;;18.00;99.90;;;;;;3609570;39;20825;-90
2021/05/20 08:43:09;;;;;;;4.10;2.72;;;18.20;99.90;;;;;;3602687;39;20047;-88
2021/05/20 08:45:37;;;;;;;5.57;1.35;;;17.40;99.90;;;;;;3612471;39;20048;-88
2021/05/20 08:48:04;;;;;;;4.45;2.08;;;16.90;99.40;;;;;;3612905;39;20047;-90
2021/05/20 08:50:31;;;;;;;2.80;2.10;;;16.80;99.90;;;;;;3612737;39;20027;-90
2021/05/20 08:52:57;;;;;;;2.25;2.05;;;16.90;99.90;;;;;;3612475;39;20461;-92
2021/05/20 08:55:29;;;;;;;2.15;1.98;;;17.70;99.90;;;;;;3620970;39;20059;-90
2021/05/20 08:57:57;;;;;;;2.25;1.73;;;17.40;99.90;;;;;;3612762;39;20055;-90
2021/05/20 09:00:24;;;;;;;2.42;1.25;;;18.10;99.90;;;;;;3611632;39;20076;-89
2021/05/20 09:03:05;;;;;;;5.95;1.67;;;19.40;98.70;;;;;;3611387;39;20048;-89
2021/05/20 09:05:34;;;;;;;4.13;2.08;;;19.70;96.40;;;;;;3620170;39;20426;-90
2021/05/20 09:08:04;;;;;;;2.50;2.28;;;18.80;97.30;;;;;;3619169;39;20057;-90
2021/05/20 09:10:38;;;;;;;1.85;1.75;;;17.50;99.90;;;;;;3611818;39;20036;-92
2021/05/20 09:13:12;;;;;;;2.47;1.50;;;17.90;99.90;;;;;;3608185;39;20389;-89
2021/05/20 09:15:40;;;;;;;4.85;1.88;;;18.20;99.90;;;;;;3622294;39;20424;-90
2021/05/20 09:18:07;;;;;;;2.47;1.17;;;19.10;97.90;;;;;;3603883;39;20047;-91
2021/05/20 09:20:34;;;;;;;3.08;1.17;;;19.40;96.50;;;;;;3605793;39;20047;-88
2021/05/20 09:23:11;;;;;;;2.45;1.50;;;19.60;95.80;;;;;;3624098;39;20039;-89
2021/05/20 09:25:41;;;;;;;2.20;1.20;;;19.30;94.70;;;;;;3607751;39;20042;-91
2021/05/20 09:28:11;;;;;;;1.67;1.17;;;20.80;93.80;;;;;;3616183;39;20079;-89
2021/05/20 09:30:46;;;;;;;3.33;1.27;;;19.90;92.40;;;;;;3615270;39;20050;-90
2021/05/20 09:33:14;;;;;;;3.45;1.00;;;20.10;92.60;;;;;;3613141;39;20405;-90
2021/05/20 09:35:44;;;;;;;2.00;1.75;;;20.20;93.20;;;;;;3614627;39;20051;-90
2021/05/20 09:38:18;;;;;;;1.70;1.55;;;20.00;92.70;;;;;;3616854;39;20107;-90
2021/05/20 09:40:58;;;;;;;2.83;1.25;;;19.30;93.50;;;;;;3616180;39;20063;-90
2021/05/20 09:43:30;;;;;;;1.80;1.65;;;20.40;93.40;;;;;;3611765;39;20450;-89
2021/05/20 09:45:57;;;;;;;2.75;1.60;;;21.40;91.50;;;;;;3609640;39;20047;-91
2021/05/20 09:48:27;;;;;;;2.28;1.20;;;22.20;89.60;;;;;;3609329;39;20403;-88
2021/05/20 09:50:56;;;;;;;1.55;1.45;;;21.50;75.00;;;;;;3612579;39;20039;-89
2021/05/20 09:53:26;;;;;;;4.88;2.05;;;22.30;78.80;;;;;;3617734;39;20031;-90
2021/05/20 09:55:57;;;;;;;3.55;1.70;;;22.30;78.10;;;;;;3605662;39;20043;-92
2021/05/20 09:58:36;;;;;;;2.38;1.52;;;21.10;80.70;;;;;;3598118;39;20321;-93
2021/05/20 10:01:18;;;;;;;2.28;1.73;;;20.10;79.40;;;;;;3602461;39;20040;-88
2021/05/20 10:03:57;;;;;;;3.38;1.52;;;19.40;87.00;;;;;;3616667;39;20355;-87
2021/05/20 10:06:40;;;;;;;2.53;1.20;;;21.20;80.80;;;;;;3614373;39;20067;-86
2021/05/20 10:09:08;;;;;;;2.10;1.00;;;18.70;91.90;;;;;;3615519;39;20092;-87
2021/05/20 10:11:35;;;;;;;3.35;1.13;;;19.50;91.00;;;;;;3615117;39;20055;-89
2021/05/20 10:14:04;;;;;;;2.00;0.90;;;20.30;87.50;;;;;;3605481;39;20619;-88
2021/05/20 10:16:30;;;;;;;1.73;1.00;;;20.00;85.70;;;;;;3606921;39;20058;-89
2021/05/20 10:18:57;;;;;;;2.60;1.08;;;18.80;84.50;;;;;;3607062;39;20053;-87
2021/05/20 10:21:24;;;;;;;1.67;0.80;;;20.60;88.80;;;;;;3608925;39;20127;-88
2021/05/20 10:23:51;;;;;;;2.40;1.20;;;20.90;77.30;;;;;;3617622;39;20043;-89
2021/05/20 10:26:17;;;;;;;3.20;1.02;;;18.70;84.90;;;;;;3605545;39;20412;-87
2021/05/20 10:28:43;;;;;;;2.40;0.77;;;19.90;84.80;;;;;;3608697;39;20095;-89
2021/05/20 10:31:09;;;;;;;3.35;1.80;;;21.10;83.80;;;;;;3604674;39;20055;-89
2021/05/20 10:33:35;;;;;;;3.35;1.65;;;20.40;77.20;;;;;;3610254;39;20051;-89
2021/05/20 10:36:01;;;;;;;2.03;1.13;;;19.70;80.60;;;;;;3608654;39;20442;-88
2021/05/20 10:38:31;;;;;;;1.80;1.27;;;20.00;80.80;;;;;;3609097;39;20050;-88
2021/05/20 10:41:10;;;;;;;2.10;1.70;;;20.10;76.20;;;;;;3618182;39;20067;-90
2021/05/20 10:43:37;;;;;;;2.17;1.30;;;18.20;82.20;;;;;;3614660;39;20055;-89
2021/05/20 10:46:08;;;;;;;1.70;1.25;;;18.60;89.20;;;;;;3607281;39;20075;-87
2021/05/20 10:48:36;;;;;;;2.10;1.48;;;17.50;88.30;;;;;;3609026;39;20049;-88
2021/05/20 10:51:17;;;;;;;1.30;0.90;;;19.30;89.90;;;;;;3605356;39;20272;-88
2021/05/20 10:53:57;;;;;;;2.45;1.30;;;20.70;85.40;;;;;;3610992;39;20412;-89
2021/05/20 10:56:22;;;;;;;1.75;1.50;;;21.70;79.70;;;;;;3613064;39;20079;-88
2021/05/20 10:58:49;;;;;;;1.92;1.50;;;19.30;76.00;;;;;;3615596;39;20054;-87
2021/05/20 11:01:21;;;;;;;2.80;1.80;;;18.30;81.30;;;;;;3616447;39;20082;-88
2021/05/20 11:03:47;;;;;;;3.37;1.33;;;17.70;86.90;;;;;;3601820;39;20066;-88
2021/05/20 11:06:15;;;;;;;1.90;1.33;;;17.60;87.00;;;;;;3612645;39;20055;-88
2021/05/20 11:08:47;;;;;;;3.05;1.20;;;18.70;89.90;;;;;;3614376;39;20331;-87
2021/05/20 11:11:31;;;;;;;3.37;1.67;;;20.20;84.60;;;;;;3604867;39;20057;-86
2021/05/20 11:14:04;;;;;;;3.08;1.77;;;20.40;79.70;;;;;;3603653;39;20377;-87
2021/05/20 11:16:35;;;;;;;2.38;1.40;;;19.10;81.10;;;;;;3608356;39;20057;-89
2021/05/20 11:19:20;;;;;;;2.60;1.48;;;19.40;78.20;;;;;;3599434;39;20071;-88
2021/05/20 11:22:04;;;;;;;3.88;2.33;;;18.90;80.10;;;;;;3616344;39;20062;-89
2021/05/20 11:24:35;;;;;;;3.95;1.33;;;18.30;82.40;;;;;;3610084;39;20271;-86
2021/05/20 11:27:03;;;;;;;3.13;1.17;;;19.60;82.40;;;;;;3615791;39;20055;-89
2021/05/20 11:29:30;;;;;;;1.85;1.75;;;20.40;78.10;;;;;;3608543;39;20039;-88
2021/05/20 11:32:05;;;;;;;2.75;1.40;;;18.80;79.00;;;;;;3618000;39;20043;-88
2021/05/20 11:37:40;;;;;;;2.97;2.08;;;18.80;80.90;;;;;;3608328;39;20043;-90
2021/05/20 11:40:07;;;;;;;3.97;2.35;;;17.70;86.40;;;;;;3605339;39;20311;-88
2021/05/20 11:42:38;;;;;;;4.60;2.63;;;17.80;89.40;;;;;;3599385;39;20346;-88
2021/05/20 11:45:05;;;;;;;4.68;2.97;;;16.80;93.40;;;;;;3607707;39;20054;-88
2021/05/20 11:47:32;;;;;;;4.22;3.22;;;18.00;93.20;;;;;;3617267;39;20047;-87
2021/05/20 11:49:58;;;;;;;5.80;3.10;;;17.80;94.30;;;;;;3609258;39;20136;-87
2021/05/20 11:52:27;;;;;;;4.03;3.08;;;17.60;93.10;;;;;;3617715;39;20441;-88
2021/05/20 11:54:55;;;;;;;4.10;3.33;;;17.60;93.60;;;;;;3608063;39;20428;-88
2021/05/20 11:57:25;;;;;;;5.07;4.50;;;17.30;94.40;;;;;;3607369;39;20055;-87
2021/05/20 11:59:52;;;;;;;6.30;4.47;;;16.70;98.00;;;;;;3617273;39;20063;-86
2021/05/20 12:02:39;;;;;;;7.85;4.22;;;17.00;97.90;;;;;;3621127;39;20290;-87
2021/05/20 12:05:07;;;;;;;5.95;4.10;;;17.50;97.90;;;;;;3606768;39;20054;-85
2021/05/20 12:07:35;;;;;;;5.32;4.75;;;16.90;97.60;;;;;;3616084;39;20077;-87
2021/05/20 12:10:15;;;;;;;6.38;4.85;;;17.00;97.70;;;;;;3602746;39;20043;-86
2021/05/20 12:12:49;;;;;;;7.15;4.47;;;17.50;95.80;;;;;;3611764;39;20087;-87
2021/05/20 12:15:17;;;;;;;7.70;4.97;;;16.20;98.10;;;;;;3615929;39;20424;-84
2021/05/20 12:17:44;;;;;;;6.55;4.57;;;16.30;99.40;;;;;;3615079;39;20189;-86
2021/05/20 12:20:12;;;;;;;7.05;4.70;;;17.10;96.50;;;;;;3607221;39;20073;-89
2021/05/20 12:22:39;;;;;;;8.57;5.40;;;17.00;98.30;;;;;;3614978;39;20283;-88
2021/05/20 12:25:08;;;;;;;5.68;5.13;;;16.90;98.60;;;;;;3607422;39;20105;-86
2021/05/20 12:27:36;;;;;;;7.93;6.55;;;17.30;99.50;;;;;;3611974;39;20094;-87
2021/05/20 12:30:05;;;;;;;6.18;5.45;;;17.20;99.90;;;;;;3603769;39;20050;-88
2021/05/20 12:32:40;;;;;;;6.40;5.78;;;17.60;99.90;;;;;;3610082;39;20452;-88
2021/05/20 12:35:21;;;;;;;8.57;6.47;;;17.10;99.90;;;;;;3612726;39;20062;-87
2021/05/20 12:37:49;;;;;;;7.22;6.43;;;16.80;99.90;;;;;;3606575;39;20326;-87
2021/05/20 12:40:23;;;;;;;7.93;6.18;;;16.60;99.90;;;;;;3615438;39;20309;-86
2021/05/20 12:43:05;;;;;;;6.25;5.65;;;16.40;99.90;;;;;;3602779;39;20051;-87
2021/05/20 12:45:34;;;;;;;7.75;5.95;;;16.50;99.90;;;;;;3604283;39;20159;-88
2021/05/20 12:48:00;;;;;;;6.25;5.65;;;16.20;99.90;;;;;;3612500;39;20051;-88
2021/05/20 12:50:28;;;;;;;5.50;4.80;;;16.50;99.90;;;;;;3605235;39;20283;-89
2021/05/20 12:52:56;;;;;;;8.40;5.55;;;16.80;99.90;;;;;;3605283;39;20563;-89
2021/05/20 12:55:40;;;;;;;7.95;4.93;;;16.40;99.90;;;;;;3610119;39;20085;-89
2021/05/20 12:58:07;;;;;;;6.32;5.40;;;16.10;99.90;;;;;;3609741;39;20047;-88
2021/05/20 13:00:56;;;;;;;6.25;5.50;;;15.90;99.90;;;;;;3608527;39;20063;-89
2021/05/20 13:03:24;;;;;;;8.55;5.90;;;16.10;99.90;;;;;;3599972;39;20073;-89
2021/05/20 13:05:52;;;;;;;7.05;5.93;;;16.00;99.90;;;;;;3617774;39;20464;-89
2021/05/20 13:08:29;;;;;;;7.88;6.45;;;15.90;99.90;;;;;;3617936;39;20176;-87
2021/05/20 13:10:55;;;;;;;7.63;5.88;;;16.20;99.90;;;;;;3605579;39;20295;-87
2021/05/20 13:13:34;;;;;;;7.10;5.35;;;16.20;99.90;;;;;;3601461;39;20046;-90
2021/05/20 13:16:16;;;;;;;7.25;5.43;;;16.10;99.90;;;;;;3608875;39;20054;-87
2021/05/20 13:23:42;;;;;;;7.57;3.33;;;16.10;96.60;;;;;;3619209;39;20452;-87
2021/05/20 13:26:09;;;;;;;9.80;3.13;;;16.60;96.30;;;;;;3616908;39;20050;-87
2021/05/20 13:28:35;;;;;;;5.57;3.00;;;16.50;96.10;;;;;;3619432;39;20051;-89
2021/05/20 13:31:03;;;;;;;4.78;3.00;;;16.40;96.30;;;;;;3608094;39;20386;-88
2021/05/20 13:33:35;;;;;;;3.42;3.13;;;16.50;96.10;;;;;;3612997;39;20103;-90
2021/05/20 13:36:05;;;;;;;5.90;2.30;;;16.80;95.10;;;;;;3613861;39;20051;-90
2021/05/20 13:38:31;;;;;;;5.65;3.22;;;17.50;94.80;;;;;;3611870;39;20046;-89
2021/05/20 13:40:58;;;;;;;4.05;3.30;;;16.90;93.30;;;;;;3616861;39;20058;-87
2021/05/20 13:43:31;;;;;;;5.50;4.70;;;16.90;94.10;;;;;;3613150;39;20215;-86
2021/05/20 13:45:57;;;;;;;;;;;16.60;95.60;;;;;;3615005;39;20077;-87
2021/05/20 13:48:28;;;;;;;8.63;6.97;;;16.60;96.40;;;;;;3615404;39;20296;-87
2021/05/20 13:50:53;;;;;;;10.98;8.63;;;16.40;97.00;;;;;;3613759;39;20054;-87
2021/05/20 13:53:19;;;;;;;11.32;9.13;;;16.40;97.50;;;;;;3615268;39;20055;-88
2021/05/20 13:55:45;;;;;;;11.38;10.27;;;16.10;98.10;;;;;;3614580;39;20047;-89
2021/05/20 13:58:12;;;;;;;14.15;11.00;;;15.80;98.50;;;;;;3614829;39;20051;-86
2021/05/20 14:00:39;;;;;;;11.45;10.13;;;15.80;98.50;;;;;;3613994;39;20058;-87
2021/05/20 14:03:06;;;;;;;13.52;11.20;;;16.20;98.70;;;;;;3615143;39;20139;-86
2021/05/20 14:05:33;;;;;;;12.77;11.35;;;16.00;98.60;;;;;;3611557;39;20084;-84
2021/05/20 14:07:59;;;;;;;15.98;12.18;;;15.70;99.40;;;;;;3604781;39;20054;-85
2021/05/20 14:10:28;;;;;;;14.20;12.65;;;15.70;99.90;;;;;;3613328;39;20047;-89
2021/05/20 14:12:53;;;;;;;16.25;13.45;;;15.60;99.90;;;;;;3614587;39;20070;-90
2021/05/20 14:15:20;;;;;;;14.73;13.23;;;15.50;99.90;;;;;;3602071;39;20441;-89
2021/05/20 14:17:46;;;;;;;17.27;13.88;;;15.70;99.90;;;;;;3611552;39;20143;-89
2021/05/20 14:20:18;;;;;;;15.98;14.30;;;15.50;99.90;;;;;;3611512;39;20410;-90
2021/05/20 14:22:45;;;;;;;17.35;15.43;;;15.50;99.90;;;;;;3609081;39;20059;-90
2021/05/20 14:25:11;;;;;;;17.95;14.98;;;15.30;99.90;;;;;;3614849;39;20058;-88
2021/05/20 14:27:37;;;;;;;19.00;15.98;;;15.60;99.90;;;;;;3609524;39;20210;-89
2021/05/20 14:30:04;;;;;;;18.35;16.45;;;15.40;99.90;;;;;;3615455;39;20054;-87
2021/05/20 14:32:30;;;;;;;18.85;16.73;;;15.30;99.90;;;;;;3619216;39;20107;-89
2021/05/20 14:34:56;;;;;;;19.15;15.27;;;15.20;99.90;;;;;;3607889;39;20058;-90
2021/05/20 14:37:22;;;;;;;19.75;14.95;;;16.10;99.90;;;;;;3617533;39;20047;-91
2021/05/20 14:39:50;;;;;;;17.95;15.82;;;16.30;99.90;;;;;;3616616;39;20349;-88
2021/05/20 14:42:16;;;;;;;19.15;16.92;;;16.50;99.90;;;;;;3604930;39;20415;-90
2021/05/20 14:44:43;;;;;;;19.45;17.02;;;16.40;99.90;;;;;;3604301;39;20055;-89
2021/05/20 14:47:15;;;;;;;19.63;17.55;;;16.00;99.90;;;;;;3608857;39;20050;-89
2021/05/20 14:49:46;;;;;;;19.45;17.35;;;15.90;99.90;;;;;;3614732;39;20043;-88
2021/05/20 15:08:26;;;;;;;16.75;14.68;;;15.70;99.90;;;;;;3619308;39;20139;-87
2021/05/20 15:11:03;;;;;;;17.05;15.30;;;15.70;99.90;;;;;;3609136;39;20043;-89
2021/05/20 15:13:40;;;;;;;16.27;14.57;;;15.60;99.90;;;;;;3606081;39;20119;-88
2021/05/20 15:16:13;;;;;;;17.52;15.63;;;15.50;99.90;;;;;;3607515;39;20047;-89
2021/05/20 15:18:39;;;;;;;16.17;13.15;;;15.50;99.90;;;;;;3606731;39;20062;-86
2021/05/20 15:21:04;;;;;;;16.35;13.50;;;15.50;99.90;;;;;;3613369;39;20345;-89
2021/05/20 15:23:30;;;;;;;16.98;13.25;;;15.60;99.90;;;;;;3606050;39;20062;-87
2021/05/20 15:25:56;;;;;;;13.63;12.00;;;15.70;99.90;;;;;;3616411;39;20058;-88
2021/05/20 15:28:22;;;;;;;14.25;12.85;;;15.80;99.90;;;;;;3617181;39;20127;-88
2021/05/20 15:30:48;;;;;;;14.15;10.55;;;15.70;99.90;;;;;;3614692;39;20053;-87
2021/05/20 15:33:13;;;;;;;12.90;11.05;;;15.60;99.90;;;;;;3601029;39;20047;-88
2021/05/20 15:35:39;;;;;;;12.95;10.98;;;15.60;99.90;;;;;;3610280;39;20053;-89
2021/05/20 15:38:05;;;;;;;14.75;11.88;;;15.50;99.90;;;;;;3600400;39;20095;-89
2021/05/20 15:40:31;;;;;;;14.20;11.10;;;15.40;99.90;;;;;;3608732;39;20288;-89
2021/05/20 15:42:57;;;;;;;14.43;12.25;;;15.60;99.90;;;;;;3606479;39;20047;-91
2021/05/20 15:45:23;;;;;;;16.52;12.05;;;15.60;99.90;;;;;;3621570;39;20073;-89
2021/05/20 15:48:04;;;;;;;15.85;12.45;;;15.40;99.90;;;;;;3615468;39;20174;-91
2021/05/20 15:50:31;;;;;;;17.25;13.77;;;15.40;99.90;;;;;;3614359;39;20075;-89
2021/05/20 15:52:58;;;;;;;16.38;14.13;;;15.40;99.90;;;;;;3609456;39;20041;-91
2021/05/20 15:55:25;;;;;;;21.60;16.25;;;15.40;99.90;;;;;;3606284;39;20051;-90
2021/05/20 15:57:50;;;;;;;20.23;16.65;;;15.40;99.90;;;;;;3620546;39;20047;-90
2021/05/20 16:00:17;;;;;;;22.63;16.85;;;15.40;99.90;;;;;;3623486;39;20721;-89
2021/05/20 16:02:43;;;;;;;19.95;17.77;;;15.40;99.90;;;;;;3612769;39;20047;-90
2021/05/20 16:05:16;;;;;;;15.43;13.82;;;15.40;99.90;;;;;;3611365;39;20365;-90
2021/05/20 16:08:03;;;;;;;15.02;13.27;;;15.00;99.90;;;;;;3613106;39;20417;-90
2021/05/20 16:15:42;;;;;;;19.30;17.17;;;14.70;99.90;;;;;;3610705;39;20338;-89
2021/05/20 16:18:10;;;;;;;17.42;15.13;;;14.70;99.90;;;;;;3608083;39;20112;-89
2021/05/20 16:20:35;;;;;;;21.25;16.80;;;14.80;99.90;;;;;;3609554;39;20135;-89
2021/05/20 16:23:10;;;;;;;20.85;18.55;;;14.80;99.90;;;;;;3609640;39;20056;-88
2021/05/20 16:33:50;;;;;;;21.60;18.85;;;14.80;99.90;;;;;;3611633;39;20190;-90
2021/05/20 16:37:05;;;;;;;23.13;20.50;;;14.80;99.90;;;;;;3608641;39;20432;-88
2021/05/20 16:39:31;;;;;;;25.63;21.33;;;14.70;99.90;;;;;;3609755;39;20043;-87
2021/05/20 16:41:58;;;;;;;24.58;21.98;;;14.70;99.90;;;;;;3605772;39;20511;-92
2021/05/20 16:44:23;;;;;;;25.33;22.35;;;14.80;99.90;;;;;;3603429;39;20039;-88
2021/05/20 16:46:49;;;;;;;25.48;22.77;;;14.70;99.90;;;;;;3610093;39;20048;-88
2021/05/20 16:49:15;;;;;;;25.52;22.83;;;14.70;99.90;;;;;;3603116;40;20082;-87
2021/05/20 16:51:41;;;;;;;25.30;22.75;;;14.70;99.90;;;;;;3612035;39;20472;-88
2021/05/20 16:54:11;;;;;;;26.73;23.75;;;14.80;99.90;;;;;;3612504;39;20309;-88
2021/05/20 16:56:50;;;;;;;26.67;23.90;;;14.70;99.90;;;;;;3612099;39;20044;-90
2021/05/20 16:59:15;;;;;;;27.55;24.23;;;14.70;99.90;;;;;;3613366;39;20230;-89
2021/05/20 17:01:41;;;;;;;29.42;25.90;;;14.70;99.90;;;;;;3614006;39;20042;-90
2021/05/20 17:04:07;;;;;;;26.85;24.15;;;14.70;99.90;;;;;;3609404;39;20051;-91
2021/05/20 17:06:33;;;;;;;26.52;23.85;;;14.70;99.90;;;;;;3611191;39;20043;-88
2021/05/20 17:08:59;;;;;;;29.40;26.25;;;14.60;99.90;;;;;;3621088;39;20088;-90
2021/05/20 17:11:24;;;;;;;30.13;26.88;;;14.60;99.90;;;;;;3612625;39;20161;-90
2021/05/20 17:13:52;;;;;;;28.38;25.40;;;14.70;99.90;;;;;;3628807;22;20025;-84
2021/05/20 17:16:18;;;;;;;27.90;25.15;;;14.60;99.90;;;;;;3585955;40;20053;-84
2021/05/20 17:18:44;;;;;;;30.38;27.33;;;14.60;99.90;;;;;;3582109;40;20060;-85
2021/05/20 17:21:10;;;;;;;29.23;26.38;;;14.60;99.90;;;;;;3581788;40;20052;-85
2021/05/20 17:23:37;;;;;;;30.60;27.50;;;14.60;99.90;;;;;;3570498;40;20053;-85
2021/05/20 17:26:06;;;;;;;33.20;29.60;;;14.60;99.90;;;;;;3578880;40;20032;-84
2021/05/20 17:28:32;;;;;;;32.40;29.10;;;14.70;99.90;;;;;;3583837;40;20053;-85
2021/05/20 17:30:58;;;;;;;32.97;27.88;;;14.70;99.90;;;;;;3580649;40;20430;-85
2021/05/20 17:33:29;;;;;;;30.65;27.65;;;14.70;99.90;;;;;;3584116;40;20056;-84
2021/05/20 17:35:56;;;;;;;32.42;27.90;;;14.80;99.90;;;;;;3583699;40;20415;-86
2021/05/20 17:38:23;;;;;;;29.52;26.42;;;14.90;99.90;;;;;;3576538;40;20065;-86
2021/05/20 17:40:49;;;;;;;30.10;26.95;;;14.70;99.90;;;;;;3576232;40;20069;-84
2021/05/20 17:43:15;;;;;;;26.52;23.77;;;14.70;99.90;;;;;;3575683;40;20441;-84
2021/05/20 17:45:40;;;;;;;28.02;25.00;;;14.70;99.90;;;;;;3575943;40;20062;-84
2021/05/20 17:48:11;;;;;;;25.90;23.20;;;14.70;99.90;;;;;;3575567;40;20056;-85
2021/05/20 17:50:37;;;;;;;26.10;23.58;;;14.70;99.90;;;;;;3577073;40;20040;-84
2021/05/20 17:53:02;;;;;;;21.95;19.67;;;14.70;99.90;;;;;;3585731;40;20052;-85
2021/05/20 17:55:28;;;;;;;20.52;18.38;;;14.60;99.90;;;;;;3586645;40;20064;-84
2021/05/20 17:57:54;;;;;;;14.27;12.75;;;14.50;99.90;;;;;;3586098;40;20067;-84
2021/05/20 18:00:20;;;;;;;14.68;10.55;;;14.60;99.90;;;;;;3586136;40;20056;-86
2021/05/20 18:02:49;;;;;;;10.73;9.57;;;14.60;99.90;;;;;;3585963;40;20056;-85
2021/05/20 18:05:15;;;;;;;7.82;6.78;;;14.60;99.90;;;;;;3586311;40;20079;-83
2021/05/20 18:07:42;;;;;;;10.60;6.88;;;14.60;99.90;;;;;;3586205;40;20052;-85
2021/05/20 18:10:10;;;;;;;8.43;7.20;;;14.50;99.90;;;;;;3581561;40;20052;-85
2021/05/20 18:12:40;;;;;;;8.35;7.30;;;14.50;99.90;;;;;;3581654;40;20053;-84
2021/05/20 18:18:04;;;;;;;10.07;6.25;;;14.40;99.90;;;;;;3580494;40;20058;-85
2021/05/20 18:22:56;;;;;;;7.32;6.47;;;14.30;99.90;;;;;;3579609;40;20059;-86
2021/05/20 18:25:22;;;;;;;8.23;5.80;;;14.30;99.90;;;;;;3578485;40;20053;-87
2021/05/20 18:27:48;;;;;;;7.43;6.22;;;14.20;99.90;;;;;;3583086;40;20058;-87
2021/05/20 18:30:17;;;;;;;8.07;6.68;;;14.20;99.90;;;;;;3582074;40;20049;-86
2021/05/20 18:32:43;;;;;;;8.30;6.50;;;14.20;99.90;;;;;;3581546;40;20077;-84
2021/05/20 18:35:09;;;;;;;11.27;6.57;;;14.20;99.90;;;;;;3578797;40;20052;-84
2021/05/20 18:37:35;;;;;;;8.82;6.88;;;14.20;99.90;;;;;;3568970;40;20070;-86
2021/05/20 18:40:06;;;;;;;9.77;5.80;;;14.30;99.90;;;;;;3578172;40;20387;-85
2021/05/20 18:42:34;;;;;;;7.43;5.88;;;14.10;99.90;;;;;;3580366;40;20055;-84
2021/05/20 18:45:03;;;;;;;8.68;5.72;;;14.20;99.90;;;;;;3579812;40;20048;-84
2021/05/20 18:47:31;;;;;;;6.28;5.60;;;14.20;99.90;;;;;;3580616;40;20130;-84
2021/05/20 18:49:58;;;;;;;8.98;6.07;;;14.10;99.90;;;;;;3577180;40;20064;-85
2021/05/20 18:52:24;;;;;;;6.50;5.15;;;14.10;99.90;;;;;;3577056;40;20056;-84
2021/05/20 18:54:58;;;;;;;7.80;3.50;;;14.10;99.90;;;;;;3583361;40;20049;-84
2021/05/20 18:57:24;;;;;;;3.25;2.75;;;14.00;99.90;;;;;;3587552;40;20044;-84
2021/05/20 18:59:50;;;;;;;3.08;2.53;;;14.00;99.90;;;;;;3583933;40;20036;-85
2021/05/20 19:02:17;;;;;;;3.50;2.17;;;14.00;99.90;;;;;;3583946;40;20318;-86
2021/05/20 19:04:43;;;;;;;3.28;1.58;;;14.00;99.70;;;;;;3578335;40;20080;-85
2021/05/20 19:09:39;;;;;;;2.08;1.38;;;13.90;97.10;;;;;;3578558;40;20063;-85
2021/05/20 19:12:06;;;;;;;3.15;1.50;;;13.90;97.60;;;;;;3571484;40;20045;-85
2021/05/20 19:14:31;;;;;;;2.55;1.10;;;13.80;98.30;;;;;;3580332;40;20084;-83
2021/05/20 19:16:57;;;;;;;2.60;1.52;;;13.70;98.80;;;;;;3583911;40;20059;-84
2021/05/20 19:19:37;;;;;;;2.67;1.23;;;13.60;99.00;;;;;;3575067;40;20036;-85
2021/05/20 19:22:06;;;;;;;2.03;1.35;;;13.50;99.60;;;;;;3578379;40;20302;-83
2021/05/20 19:24:32;;;;;;;2.97;1.45;;;13.40;99.90;;;;;;3579669;40;20041;-84
2021/05/20 19:26:58;;;;;;;4.47;1.67;;;13.40;99.90;;;;;;3580449;40;20060;-83
2021/05/20 19:29:33;;;;;;;2.88;1.67;;;13.30;99.90;;;;;;3578683;40;20068;-83
2021/05/20 19:32:03;;;;;;;2.55;1.63;;;13.30;99.90;;;;;;3584110;40;20041;-85
2021/05/20 19:34:29;;;;;;;3.45;1.65;;;13.30;99.90;;;;;;3577728;40;20085;-84
2021/05/20 19:37:07;;;;;;;3.35;1.52;;;13.30;99.90;;;;;;3583553;40;20052;-85
2021/05/20 19:39:33;;;;;;;4.28;1.70;;;13.30;99.90;;;;;;3579518;40;20052;-85
2021/05/20 19:41:59;;;;;;;4.32;1.70;;;13.30;99.90;;;;;;3575313;40;20056;-82
2021/05/20 19:44:25;;;;;;;2.30;1.15;;;13.20;99.90;;;;;;3581183;40;20049;-85
2021/05/20 19:46:51;;;;;;;4.45;1.60;;;13.20;99.90;;;;;;3576107;40;20063;-84
2021/05/20 19:49:31;;;;;;;2.25;1.60;;;13.20;99.90;;;;;;3585851;40;20059;-84
2021/05/20 19:51:58;;;;;;;4.45;1.40;;;13.20;99.90;;;;;;3588285;40;20056;-84